Time;durP1;ratioP1;P1;durP2;ratioP2;P2;SDS_P1;SDS_P2;PMS_P1;PMS_P2;Temp;Humidity;BMP_temperature;BMP_pressure;BME280_temperature;BME280_humidity;BME280_pressure;Samples;Min_cycle;Max_cycle;Signal;HPM_P1;HPM_P2
2021/12/31 00:00:09;;;;;;;1.27;0.80;;;;;;;-145.06;24.23;60892.56;4847948;28;20267;-87
2021/12/31 00:02:48;;;;;;;1.42;0.70;;;;;;;-145.06;24.23;60892.56;4870879;28;20037;-88
2021/12/31 00:05:27;;;;;;;1.13;0.70;;;;;;;-145.06;24.23;60892.56;4856796;28;20057;-88
2021/12/31 00:08:06;;;;;;;1.40;0.68;;;;;;;187.52;24.23;60892.56;4860555;28;20038;-88
2021/12/31 00:10:45;;;;;;;1.73;0.60;;;;;;;-145.06;24.23;60892.56;4852617;28;20112;-88
2021/12/31 00:13:23;;;;;;;0.93;0.60;;;;;;;15.23;24.23;60892.56;4863746;28;20268;-88
2021/12/31 00:16:03;;;;;;;2.58;0.60;;;;;;;-145.06;24.23;60892.56;4850696;28;20439;-87
2021/12/31 00:18:42;;;;;;;0.88;0.70;;;;;;;-145.06;24.23;60892.56;4862882;28;20116;-87
2021/12/31 00:21:21;;;;;;;2.30;0.60;;;;;;;15.88;24.23;60892.56;4863170;28;20576;-88
2021/12/31 00:24:00;;;;;;;1.85;0.70;;;;;;;14.85;24.23;60892.56;4848007;28;20038;-87
2021/12/31 00:26:38;;;;;;;1.70;0.70;;;;;;;15.88;24.23;60892.56;4863412;28;20112;-88
2021/12/31 00:29:17;;;;;;;0.80;0.60;;;;;;;-145.06;24.23;60892.56;4870898;28;20259;-87
2021/12/31 00:31:56;;;;;;;0.83;0.70;;;;;;;14.86;24.23;60892.56;4870650;28;20041;-88
2021/12/31 00:34:36;;;;;;;0.90;0.60;;;;;;;15.88;24.23;60892.56;4854790;28;20303;-88
2021/12/31 00:37:36;;;;;;;0.93;0.70;;;;;;;-145.06;24.23;60892.56;4847029;28;20284;-88
2021/12/31 00:40:17;;;;;;;2.25;0.50;;;;;;;-145.06;24.23;60892.56;4866016;28;20116;-87
2021/12/31 00:42:57;;;;;;;1.40;0.60;;;;;;;-145.06;24.23;60892.56;4855937;28;20100;-88
2021/12/31 00:45:39;;;;;;;0.60;0.40;;;;;;;-145.06;24.23;60892.56;4872072;28;20033;-88
2021/12/31 00:48:18;;;;;;;0.68;0.40;;;;;;;-145.06;24.23;60892.56;4854379;28;20029;-88
2021/12/31 00:50:57;;;;;;;0.40;0.40;;;;;;;15.88;24.23;60892.56;4855412;28;20025;-88
2021/12/31 00:53:36;;;;;;;0.40;0.40;;;;;;;-145.06;24.23;60892.56;4858707;28;20036;-88
2021/12/31 00:56:15;;;;;;;2.00;0.50;;;;;;;15.88;24.23;60892.56;4853405;28;20269;-88
2021/12/31 00:58:54;;;;;;;0.50;0.43;;;;;;;-145.06;24.23;60892.56;4855372;28;20041;-87
2021/12/31 01:01:35;;;;;;;1.00;0.50;;;;;;;-145.06;24.23;60892.56;4868216;28;20021;-88
2021/12/31 01:04:14;;;;;;;0.63;0.47;;;;;;;-145.06;24.23;60892.56;4845661;28;20029;-88
2021/12/31 01:06:54;;;;;;;1.75;0.50;;;;;;;-145.06;24.23;60892.56;4849436;28;20037;-88
2021/12/31 01:09:35;;;;;;;0.93;0.40;;;;;;;-145.06;24.23;60892.56;4853050;28;20498;-88
2021/12/31 01:12:14;;;;;;;0.70;0.45;;;;;;;-145.06;24.23;60892.56;4867581;28;20120;-88
2021/12/31 01:15:01;;;;;;;0.60;0.50;;;;;;;-145.06;24.23;60892.56;4845604;28;20188;-88
2021/12/31 01:18:14;;;;;;;1.95;0.65;;;;;;;-145.06;24.23;60892.56;4870205;28;20367;-88
2021/12/31 01:20:48;;;;;;;1.30;0.60;;;;;;;-145.06;24.23;60892.56;4866489;28;20021;-88
2021/12/31 01:23:27;;;;;;;1.53;0.60;;;;;;;-145.06;24.23;60892.56;4855342;28;20375;-88
2021/12/31 01:26:06;;;;;;;0.82;0.45;;;;;;;-145.06;24.23;60892.56;4853335;28;20260;-88
2021/12/31 01:28:45;;;;;;;1.45;0.60;;;;;;;-145.06;24.23;60892.56;4856093;28;20379;-88
2021/12/31 01:31:24;;;;;;;0.88;0.30;;;;;;;-145.06;24.23;60892.56;4848887;28;20034;-87
2021/12/31 01:34:04;;;;;;;1.93;0.50;;;;;;;-145.06;24.23;60892.56;4849624;28;20033;-87
2021/12/31 01:36:42;;;;;;;0.70;0.40;;;;;;;-145.06;24.23;60892.56;4864015;28;20288;-88
2021/12/31 01:39:22;;;;;;;0.65;0.50;;;;;;;-145.06;24.23;60892.56;4850924;28;20041;-87
2021/12/31 01:42:06;;;;;;;0.60;0.40;;;;;;;-145.06;24.23;60892.56;4850507;28;20029;-87
2021/12/31 01:44:55;;;;;;;0.30;0.30;;;;;;;-145.06;24.23;60892.56;4866751;28;20105;-87
2021/12/31 01:47:44;;;;;;;1.25;0.70;;;;;;;-145.06;24.23;60892.56;4870462;28;20037;-87
2021/12/31 01:50:25;;;;;;;0.35;0.35;;;;;;;-145.06;24.23;60892.56;4853935;28;20280;-88
2021/12/31 01:53:05;;;;;;;0.88;0.35;;;;;;;-145.06;24.23;60892.56;4864342;28;20037;-88
2021/12/31 01:55:45;;;;;;;1.30;0.50;;;;;;;-145.06;24.23;60892.56;4851702;28;20040;-88
2021/12/31 01:58:26;;;;;;;0.60;0.50;;;;;;;-145.06;24.23;60892.56;4847824;28;20033;-88
2021/12/31 02:01:06;;;;;;;0.70;0.30;;;;;;;-145.06;24.23;60892.56;4858076;28;20032;-88
2021/12/31 02:03:45;;;;;;;1.65;0.47;;;;;;;-145.06;24.23;60892.56;4863535;28;20032;-88
2021/12/31 02:06:24;;;;;;;0.93;0.40;;;;;;;-145.06;24.23;60892.56;4866005;28;20036;-88
2021/12/31 02:09:05;;;;;;;0.65;0.50;;;;;;;-145.06;24.23;60892.56;4856149;28;20041;-88
2021/12/31 02:11:43;;;;;;;0.52;0.40;;;;;;;-145.06;24.23;60892.56;4849592;28;20038;-87
2021/12/31 02:14:24;;;;;;;0.60;0.32;;;;;;;-145.06;24.23;60892.56;4864802;28;20120;-88
2021/12/31 02:17:07;;;;;;;1.15;0.35;;;;;;;-145.06;24.23;60892.56;4850148;28;20040;-88
2021/12/31 02:20:14;;;;;;;0.93;0.52;;;;;;;-145.06;24.23;60892.56;4849902;28;20029;-88
2021/12/31 02:22:55;;;;;;;0.57;0.40;;;;;;;-145.06;24.23;60892.56;4850217;28;20475;-88
2021/12/31 02:25:36;;;;;;;0.75;0.50;;;;;;;-145.06;24.23;60892.56;4867009;28;20041;-88
2021/12/31 02:28:16;;;;;;;1.17;0.47;;;;;;;-145.06;24.23;60892.56;4847143;28;20038;-88
2021/12/31 02:31:00;;;;;;;1.02;0.40;;;;;;;-145.06;24.23;60892.56;4849125;28;20356;-88
2021/12/31 02:33:39;;;;;;;0.60;0.40;;;;;;;-145.06;24.23;60892.56;4851114;28;20494;-88
2021/12/31 02:36:19;;;;;;;1.37;0.50;;;;;;;-145.06;24.23;60892.56;4853299;28;20570;-88
2021/12/31 02:38:58;;;;;;;1.48;0.70;;;;;;;-145.06;24.23;60892.56;4867731;28;20474;-87
2021/12/31 02:41:37;;;;;;;1.00;0.60;;;;;;;-145.06;24.23;60892.56;4848375;28;20060;-87
2021/12/31 02:44:17;;;;;;;0.55;0.38;;;;;;;-145.06;24.23;60892.56;4855123;28;20041;-88
2021/12/31 02:46:56;;;;;;;0.50;0.50;;;;;;;-145.06;24.23;60892.56;4854505;28;20060;-88
2021/12/31 02:49:39;;;;;;;0.50;0.40;;;;;;;-145.06;24.23;60892.56;4846389;28;20072;-88
2021/12/31 02:52:18;;;;;;;0.95;0.40;;;;;;;-145.06;24.23;60892.56;4850815;28;20037;-88
2021/12/31 02:55:00;;;;;;;0.60;0.40;;;;;;;-145.06;24.23;60892.56;4859495;28;20053;-87
2021/12/31 02:57:40;;;;;;;0.70;0.30;;;;;;;-145.06;24.23;60892.56;4848411;28;20037;-87
2021/12/31 03:00:19;;;;;;;0.80;0.40;;;;;;;-145.06;24.23;60892.56;4850312;28;20614;-88
2021/12/31 03:03:00;;;;;;;0.63;0.40;;;;;;;-145.06;24.23;60892.56;4863264;28;20032;-88
2021/12/31 03:05:41;;;;;;;0.30;0.30;;;;;;;-145.06;24.23;60892.56;4850756;28;20037;-88
2021/12/31 03:08:23;;;;;;;0.85;0.40;;;;;;;-145.06;24.23;60892.56;4859725;28;20036;-88
2021/12/31 03:11:06;;;;;;;0.40;0.30;;;;;;;-145.06;24.23;60892.56;4858259;28;20294;-89
2021/12/31 03:13:51;;;;;;;0.60;0.40;;;;;;;-145.06;24.23;60892.56;4867911;28;20037;-88
2021/12/31 03:16:32;;;;;;;0.30;0.30;;;;;;;-145.06;24.23;60892.56;4854093;28;20029;-87
2021/12/31 03:19:12;;;;;;;0.40;0.38;;;;;;;-145.06;24.23;60892.56;4851813;28;20478;-88
2021/12/31 03:21:54;;;;;;;0.90;0.40;;;;;;;-145.06;24.23;60892.56;4845764;28;20017;-88
2021/12/31 03:24:33;;;;;;;0.50;0.30;;;;;;;-145.06;24.23;60892.56;4854897;28;20036;-89
2021/12/31 03:27:11;;;;;;;0.35;0.32;;;;;;;-145.06;24.23;60892.56;4869178;28;20033;-89
2021/12/31 03:29:50;;;;;;;0.93;0.50;;;;;;;-145.06;24.23;60892.56;4855159;28;20025;-88
2021/12/31 03:32:33;;;;;;;0.70;0.32;;;;;;;-145.06;24.23;60892.56;4858911;28;20041;-88
2021/12/31 03:35:12;;;;;;;0.93;0.40;;;;;;;-145.06;24.23;60892.56;4857321;28;20033;-88
2021/12/31 03:37:51;;;;;;;0.75;0.20;;;;;;;-145.06;24.23;60892.56;4868115;28;20481;-88
2021/12/31 03:40:30;;;;;;;1.50;0.47;;;;;;;-145.06;24.23;60892.56;4853341;28;20037;-88
2021/12/31 03:43:09;;;;;;;0.45;0.40;;;;;;;-145.06;24.23;60892.56;4851105;28;20108;-87
2021/12/31 03:45:50;;;;;;;0.43;0.30;;;;;;;-145.06;24.23;60892.56;4850715;28;20029;-88
2021/12/31 03:48:31;;;;;;;1.27;0.30;;;;;;;-145.06;24.23;60892.56;4853853;28;20116;-87
2021/12/31 03:51:11;;;;;;;0.50;0.40;;;;;;;-145.06;24.23;60892.56;4858121;28;20025;-88
2021/12/31 03:53:52;;;;;;;0.35;0.35;;;;;;;-145.06;24.23;60892.56;4866253;28;20116;-88
2021/12/31 03:56:33;;;;;;;1.00;0.38;;;;;;;-145.06;24.23;60892.56;4866379;28;20120;-89
2021/12/31 03:59:12;;;;;;;1.33;0.30;;;;;;;-145.06;24.23;60892.56;4848490;28;20028;-89
2021/12/31 04:01:51;;;;;;;0.40;0.35;;;;;;;-145.06;24.23;60892.56;4857028;28;20375;-89
2021/12/31 04:04:30;;;;;;;0.30;0.30;;;;;;;-145.06;24.23;60892.56;4864829;28;20045;-88
2021/12/31 04:07:09;;;;;;;0.70;0.40;;;;;;;-145.06;24.23;60892.56;4870120;28;20036;-88
2021/12/31 04:09:48;;;;;;;0.35;0.30;;;;;;;-145.06;24.23;60892.56;4853974;28;20033;-89
2021/12/31 04:12:27;;;;;;;0.40;0.30;;;;;;;-145.06;24.23;60892.56;4861318;28;20025;-88
2021/12/31 04:15:07;;;;;;;1.30;0.28;;;;;;;-145.06;24.23;60892.56;4866572;28;20522;-88
2021/12/31 04:17:46;;;;;;;0.30;0.30;;;;;;;-145.06;24.23;60892.56;4868870;28;20036;-88
2021/12/31 04:20:41;;;;;;;0.57;0.30;;;;;;;-145.06;24.23;60892.56;4850899;28;20037;-88
2021/12/31 04:23:32;;;;;;;0.52;0.30;;;;;;;-145.06;24.23;60892.56;4852365;28;20029;-88
2021/12/31 04:26:11;;;;;;;0.88;0.45;;;;;;;-145.06;24.23;60892.56;4856833;28;20029;-88
2021/12/31 04:28:59;;;;;;;1.10;0.30;;;;;;;-145.06;24.23;60892.56;4869318;28;20037;-89
2021/12/31 04:31:38;;;;;;;0.65;0.38;;;;;;;-145.06;24.23;60892.56;4847548;28;20359;-88
2021/12/31 04:34:18;;;;;;;0.43;0.32;;;;;;;15.23;24.23;60892.56;4851682;28;20068;-88
2021/12/31 04:36:57;;;;;;;0.40;0.40;;;;;;;15.88;24.23;60892.56;4867472;28;20072;-88
2021/12/31 04:39:37;;;;;;;0.68;0.30;;;;;;;-145.06;24.23;60892.56;4847847;28;20069;-88
2021/12/31 04:42:16;;;;;;;1.45;0.50;;;;;;;14.57;24.23;60892.56;4863308;28;20076;-88
2021/12/31 04:44:55;;;;;;;0.70;0.40;;;;;;;14.52;24.23;60892.56;4850506;28;20061;-88
2021/12/31 04:47:34;;;;;;;1.35;0.40;;;;;;;14.48;24.23;60892.56;4853930;28;20053;-88
2021/12/31 04:50:13;;;;;;;0.45;0.30;;;;;;;-145.06;24.23;60892.56;4871803;28;20482;-89
2021/12/31 04:52:52;;;;;;;0.30;0.30;;;;;;;-145.06;24.23;60892.56;4856940;28;20379;-87
2021/12/31 04:55:31;;;;;;;0.70;0.60;;;;;;;14.42;24.23;60892.56;4852511;28;20585;-88
2021/12/31 04:58:10;;;;;;;0.37;0.30;;;;;;;14.36;24.23;60892.56;4866377;28;20067;-87
2021/12/31 05:00:49;;;;;;;0.30;0.23;;;;;;;-145.06;24.23;60892.56;4848812;28;20045;-88
2021/12/31 05:03:28;;;;;;;1.02;0.30;;;;;;;14.29;24.23;60892.56;4855729;28;20036;-88
2021/12/31 05:06:07;;;;;;;0.50;0.40;;;;;;;14.58;24.23;60892.56;4841735;28;20029;-87
2021/12/31 05:08:46;;;;;;;0.45;0.30;;;;;;;-145.06;24.23;60892.56;4849659;28;20045;-88
2021/12/31 05:11:25;;;;;;;0.63;0.40;;;;;;;-145.06;24.23;60892.56;4854855;28;20041;-88
2021/12/31 05:14:05;;;;;;;0.82;0.50;;;;;;;-145.06;24.23;60892.56;4865790;28;20284;-87
2021/12/31 05:16:43;;;;;;;0.70;0.43;;;;;;;-145.06;24.23;60892.56;4865469;28;20037;-88
2021/12/31 05:19:22;;;;;;;0.40;0.35;;;;;;;-145.06;24.23;60892.56;4849841;28;20272;-88
2021/12/31 05:22:01;;;;;;;0.37;0.27;;;;;;;-145.06;24.23;60892.56;4849614;28;20025;-88
2021/12/31 05:24:40;;;;;;;1.25;0.50;;;;;;;-145.06;24.23;60892.56;4867250;28;20041;-88
2021/12/31 05:27:22;;;;;;;0.50;0.50;;;;;;;-145.06;24.23;60892.56;4846662;28;20037;-89
2021/12/31 05:30:02;;;;;;;0.65;0.50;;;;;;;-145.06;24.23;60892.56;4849720;28;20040;-88
2021/12/31 05:32:42;;;;;;;0.50;0.40;;;;;;;-145.06;24.23;60892.56;4851406;28;20112;-89
2021/12/31 05:35:21;;;;;;;0.57;0.40;;;;;;;-145.06;24.23;60892.56;4853038;28;20040;-89
2021/12/31 05:38:00;;;;;;;2.05;0.80;;;;;;;-145.06;24.23;60892.56;4855481;28;20474;-88
2021/12/31 05:40:39;;;;;;;0.30;0.30;;;;;;;-145.06;24.23;60892.56;4849561;28;20363;-87
2021/12/31 05:43:21;;;;;;;0.87;0.50;;;;;;;-145.06;24.23;60892.56;4849804;28;20040;-88
2021/12/31 05:46:01;;;;;;;0.90;0.40;;;;;;;-145.06;24.23;60892.56;4865770;28;20287;-88
2021/12/31 05:48:40;;;;;;;0.50;0.50;;;;;;;-145.06;24.23;60892.56;4861932;28;20108;-87
2021/12/31 05:51:21;;;;;;;0.40;0.40;;;;;;;-145.06;24.23;60892.56;4848946;28;20371;-88
2021/12/31 05:54:03;;;;;;;0.73;0.45;;;;;;;-145.06;24.23;60892.56;4863051;28;20037;-88
2021/12/31 05:56:43;;;;;;;0.22;0.20;;;;;;;-145.06;24.23;60892.56;4860545;28;20036;-88
2021/12/31 05:59:31;;;;;;;0.43;0.30;;;;;;;14.58;24.23;60892.56;4859285;28;20489;-88
2021/12/31 06:02:10;;;;;;;1.60;0.70;;;;;;;-145.06;24.23;60892.56;4846879;28;20060;-88
2021/12/31 06:04:49;;;;;;;0.60;0.35;;;;;;;-145.06;24.23;60892.56;4845948;28;20148;-88
2021/12/31 06:07:30;;;;;;;0.43;0.43;;;;;;;13.44;24.23;60892.56;4855805;28;20041;-88
2021/12/31 06:10:12;;;;;;;0.40;0.38;;;;;;;13.41;24.23;60892.56;4853448;28;20033;-87
2021/12/31 06:12:58;;;;;;;0.95;0.40;;;;;;;-145.06;24.23;60892.56;4862895;28;20069;-88
2021/12/31 06:15:41;;;;;;;0.57;0.32;;;;;;;-145.06;24.23;60892.56;4853105;28;20030;-88
2021/12/31 06:18:20;;;;;;;0.30;0.30;;;;;;;-145.06;24.23;60892.56;4844125;28;20108;-88
2021/12/31 06:21:03;;;;;;;0.50;0.50;;;;;;;14.58;24.23;60892.56;4860416;28;20368;-88
2021/12/31 06:23:50;;;;;;;0.65;0.40;;;;;;;13.22;24.23;60892.56;4857854;28;20049;-88
2021/12/31 06:26:32;;;;;;;0.50;0.30;;;;;;;13.18;24.23;60892.56;4844456;28;20030;-87
2021/12/31 06:29:20;;;;;;;0.82;0.50;;;;;;;13.14;24.23;60892.56;4859688;28;20029;-87
2021/12/31 06:32:05;;;;;;;0.57;0.57;;;;;;;13.09;24.23;60892.56;4861269;28;20143;-87
2021/12/31 06:34:45;;;;;;;0.30;0.30;;;;;;;-145.06;24.23;60892.56;4851111;28;20028;-88
2021/12/31 06:37:24;;;;;;;1.47;0.60;;;;;;;-145.06;24.23;60892.56;4861036;28;20277;-87
2021/12/31 06:40:06;;;;;;;0.82;0.50;;;;;;;-145.06;24.23;60892.56;4861285;28;20714;-86
2021/12/31 06:42:54;;;;;;;0.40;0.40;;;;;;;-145.06;24.23;60892.56;4861170;28;20033;-87
2021/12/31 06:45:35;;;;;;;0.93;0.57;;;;;;;-145.06;24.23;60892.56;4846379;28;20108;-87
2021/12/31 06:48:14;;;;;;;1.92;0.68;;;;;;;-145.06;24.23;60892.56;4846848;28;20494;-88
2021/12/31 06:50:53;;;;;;;0.65;0.50;;;;;;;187.52;24.23;60892.56;4857384;28;20036;-87
2021/12/31 06:53:32;;;;;;;0.97;0.47;;;;;;;-145.06;24.23;60892.56;4852905;28;20633;-87
2021/12/31 06:56:11;;;;;;;0.50;0.40;;;;;;;-145.06;24.23;60892.56;4861823;28;20367;-88
2021/12/31 06:58:50;;;;;;;0.70;0.70;;;;;;;-145.06;24.23;60892.56;4848366;28;20295;-88
2021/12/31 07:01:29;;;;;;;0.50;0.50;;;;;;;-145.06;24.23;60892.56;4855343;28;20025;-88
2021/12/31 07:04:10;;;;;;;1.00;0.57;;;;;;;-145.06;24.23;60892.56;4869074;28;20029;-87
2021/12/31 07:06:49;;;;;;;0.52;0.38;;;;;;;-145.06;24.23;60892.56;4864517;28;20639;-86
2021/12/31 07:09:29;;;;;;;1.15;0.60;;;;;;;-145.06;24.23;60892.56;4855531;28;20029;-88
2021/12/31 07:12:08;;;;;;;0.45;0.45;;;;;;;-145.06;24.23;60892.56;4851321;28;20549;-87
2021/12/31 07:14:47;;;;;;;1.10;0.70;;;;;;;13.28;24.23;60892.56;4863145;28;20029;-88
2021/12/31 07:17:28;;;;;;;1.55;0.70;;;;;;;-145.06;24.23;60892.56;4853339;28;20037;-88
2021/12/31 07:20:07;;;;;;;1.70;0.77;;;;;;;-145.06;24.23;60892.56;4867784;28;20030;-88
2021/12/31 07:22:47;;;;;;;1.20;0.82;;;;;;;-145.06;24.23;60892.56;4868572;28;20061;-87
2021/12/31 07:25:26;;;;;;;0.70;0.70;;;;;;;-145.06;24.23;60892.56;4867209;28;20136;-88
2021/12/31 07:28:06;;;;;;;0.80;0.57;;;;;;;-145.06;24.23;60892.56;4869241;28;20037;-87
2021/12/31 07:30:46;;;;;;;0.90;0.40;;;;;;;-145.06;24.23;60892.56;4866392;28;20029;-88
2021/12/31 07:33:25;;;;;;;0.70;0.50;;;;;;;-145.06;24.23;60892.56;4867846;28;20382;-88
2021/12/31 07:36:04;;;;;;;0.50;0.40;;;;;;;-145.06;24.23;60892.56;4871732;28;20037;-88
2021/12/31 07:38:49;;;;;;;0.93;0.60;;;;;;;-145.06;24.23;60892.56;4852790;28;20486;-88
2021/12/31 07:41:28;;;;;;;0.90;0.55;;;;;;;-145.06;24.23;60892.56;4856447;28;20033;-88
2021/12/31 07:44:07;;;;;;;0.50;0.50;;;;;;;-145.06;24.23;60892.56;4867078;28;20028;-87
2021/12/31 07:46:46;;;;;;;1.40;0.50;;;;;;;-145.06;24.23;60892.56;4864925;28;20036;-88
2021/12/31 07:49:25;;;;;;;0.93;0.50;;;;;;;-145.06;24.23;60892.56;4852798;28;20116;-89
2021/12/31 07:52:05;;;;;;;1.48;0.50;;;;;;;-145.06;24.23;60892.56;4870861;28;20029;-87
2021/12/31 07:54:44;;;;;;;0.50;0.40;;;;;;;-145.06;24.23;60892.56;4859473;28;20037;-88
2021/12/31 07:57:23;;;;;;;0.63;0.40;;;;;;;-145.06;24.23;60892.56;4850893;28;20063;-88
2021/12/31 08:00:03;;;;;;;0.43;0.40;;;;;;;-145.06;24.23;60892.56;4873265;28;20466;-88
2021/12/31 08:02:42;;;;;;;0.95;0.40;;;;;;;-145.06;24.23;60892.56;4846447;28;20060;-89
2021/12/31 08:05:23;;;;;;;0.60;0.45;;;;;;;-145.06;24.23;60892.56;4867857;28;20041;-89
2021/12/31 08:08:05;;;;;;;0.30;0.30;;;;;;;-145.06;24.23;60892.56;4861282;28;20044;-88
2021/12/31 08:10:43;;;;;;;0.30;0.30;;;;;;;-145.06;24.23;60892.56;4857141;28;20033;-88
2021/12/31 08:13:24;;;;;;;0.40;0.40;;;;;;;-145.06;24.23;60892.56;4872286;28;20103;-88
2021/12/31 08:16:03;;;;;;;0.40;0.30;;;;;;;-145.06;24.23;60892.56;4857296;28;20264;-88
2021/12/31 08:18:42;;;;;;;0.43;0.40;;;;;;;-145.06;24.23;60892.56;4870964;28;20108;-88
2021/12/31 08:21:24;;;;;;;0.40;0.40;;;;;;;-145.06;24.23;60892.56;4874846;28;20029;-89
2021/12/31 08:24:03;;;;;;;0.40;0.40;;;;;;;-145.06;24.23;60892.56;4847384;28;20037;-89
2021/12/31 08:26:42;;;;;;;0.73;0.50;;;;;;;-145.06;24.23;60892.56;4864431;28;20045;-88
2021/12/31 08:29:22;;;;;;;0.75;0.32;;;;;;;-145.06;24.23;60892.56;4855694;28;20510;-88
2021/12/31 08:32:00;;;;;;;0.50;0.43;;;;;;;-145.06;24.23;60892.56;4852302;28;20399;-89
2021/12/31 08:34:39;;;;;;;0.32;0.30;;;;;;;-145.06;24.23;60892.56;4873434;28;20032;-88
2021/12/31 08:37:18;;;;;;;0.50;0.50;;;;;;;-145.06;24.23;60892.56;4854678;28;20033;-88
2021/12/31 08:40:01;;;;;;;0.30;0.30;;;;;;;-145.06;24.23;60892.56;4856323;28;20494;-88
2021/12/31 08:42:42;;;;;;;1.17;0.60;;;;;;;-145.06;24.23;60892.56;4854907;28;20288;-88
2021/12/31 08:45:22;;;;;;;0.40;0.32;;;;;;;-145.06;24.23;60892.56;4866057;28;20063;-89
2021/12/31 08:48:04;;;;;;;0.40;0.40;;;;;;;-145.06;24.23;60892.56;4862845;28;20029;-88
2021/12/31 08:50:43;;;;;;;0.50;0.40;;;;;;;-145.06;24.23;60892.56;4864873;28;20048;-87
2021/12/31 08:53:22;;;;;;;0.40;0.40;;;;;;;-145.06;24.23;60892.56;4851081;28;20041;-87
2021/12/31 08:56:01;;;;;;;0.40;0.40;;;;;;;-145.06;24.23;60892.56;4854111;28;20029;-88
2021/12/31 08:58:40;;;;;;;0.83;0.50;;;;;;;-145.06;24.23;60892.56;4854980;28;20275;-88
2021/12/31 09:01:19;;;;;;;0.32;0.30;;;;;;;-145.06;24.23;60892.56;4857025;28;20760;-87
2021/12/31 09:04:06;;;;;;;0.40;0.40;;;;;;;-145.06;24.23;60892.56;4849828;28;20116;-88
2021/12/31 09:06:47;;;;;;;0.45;0.45;;;;;;;-145.06;24.23;60892.56;4874682;28;20033;-88
2021/12/31 09:09:26;;;;;;;0.40;0.40;;;;;;;-145.06;24.23;60892.56;4871123;28;20037;-88
2021/12/31 09:12:06;;;;;;;0.45;0.45;;;;;;;-145.06;24.23;60892.56;4854798;28;20036;-88
2021/12/31 09:14:45;;;;;;;0.50;0.38;;;;;;;-145.06;24.23;60892.56;4864972;28;20491;-89
2021/12/31 09:17:24;;;;;;;0.40;0.40;;;;;;;-145.06;24.23;60892.56;4867628;28;20041;-89
2021/12/31 09:20:04;;;;;;;0.70;0.60;;;;;;;-145.06;24.23;60892.56;4858827;28;20108;-87
2021/12/31 09:22:45;;;;;;;3.33;2.35;;;;;;;-145.06;24.23;60892.56;4850053;28;20268;-87
2021/12/31 09:25:27;;;;;;;5.97;3.95;;;;;;;-145.06;24.23;60892.56;4849712;28;20049;-88
2021/12/31 09:28:06;;;;;;;9.75;5.68;;;;;;;-145.06;24.23;60892.56;4858848;28;20033;-88
2021/12/31 09:30:48;;;;;;;9.88;6.47;;;;;;;-145.06;24.23;60892.56;4860176;28;20073;-89
2021/12/31 09:33:29;;;;;;;34.28;20.30;;;;;;;-145.06;24.23;60892.56;4847797;28;20367;-88
2021/12/31 09:36:08;;;;;;;19.30;12.73;;;;;;;-145.06;24.23;60892.56;4853333;28;20029;-89
2021/12/31 09:38:47;;;;;;;14.93;9.88;;;;;;;-145.06;24.23;60892.56;4865547;28;20045;-89
2021/12/31 09:41:26;;;;;;;11.97;7.40;;;;;;;-145.06;24.23;60892.56;4847362;28;20065;-89
2021/12/31 09:44:05;;;;;;;8.60;5.50;;;;;;;-145.06;24.23;60892.56;4859081;28;20041;-88
2021/12/31 09:46:44;;;;;;;6.78;4.28;;;;;;;-145.06;24.23;60892.56;4856457;28;20037;-87
2021/12/31 09:49:23;;;;;;;4.47;3.07;;;;;;;-145.06;24.23;60892.56;4861323;28;20032;-88
2021/12/31 09:52:03;;;;;;;3.40;2.27;;;;;;;-145.06;24.23;60892.56;4849201;28;20025;-89
2021/12/31 09:54:44;;;;;;;2.40;1.65;;;;;;;-145.06;24.23;60892.56;4856821;28;20029;-88
2021/12/31 09:57:23;;;;;;;1.73;1.30;;;;;;;-145.06;24.23;60892.56;4854711;28;21563;-88
2021/12/31 10:00:06;;;;;;;1.33;1.00;;;;;;;-145.06;24.23;60892.56;4851425;28;20514;-88
2021/12/31 10:02:47;;;;;;;1.00;0.80;;;;;;;-145.06;24.23;60892.56;4855936;28;20045;-88
2021/12/31 10:05:39;;;;;;;0.98;0.82;;;;;;;13.48;24.23;60892.56;4867738;28;20029;-89
2021/12/31 10:08:40;;;;;;;0.90;0.60;;;;;;;-145.06;24.23;60892.56;4857625;28;20045;-89
2021/12/31 10:11:22;;;;;;;0.80;0.60;;;;;;;-145.06;24.23;60892.56;4866645;28;20038;-88
2021/12/31 10:14:03;;;;;;;0.50;0.50;;;;;;;-145.06;24.23;60892.56;4870723;28;20040;-88
2021/12/31 10:16:42;;;;;;;0.50;0.30;;;;;;;-145.06;24.23;60892.56;4855725;28;20033;-89
2021/12/31 10:19:21;;;;;;;0.60;0.50;;;;;;;-145.06;24.23;60892.56;4854483;28;20036;-89
2021/12/31 10:22:00;;;;;;;0.70;0.60;;;;;;;-145.06;24.23;60892.56;4849362;28;20025;-89
2021/12/31 10:24:40;;;;;;;0.43;0.40;;;;;;;-145.06;24.23;60892.56;4872636;28;20025;-89
2021/12/31 10:27:20;;;;;;;0.50;0.50;;;;;;;14.32;24.23;60892.56;4853046;28;20068;-89
2021/12/31 10:30:05;;;;;;;0.70;0.40;;;;;;;-145.06;24.23;60892.56;4864110;28;20056;-89
2021/12/31 10:32:48;;;;;;;0.68;0.40;;;;;;;-145.06;24.23;60892.56;4858054;28;20037;-88
2021/12/31 10:35:42;;;;;;;0.40;0.40;;;;;;;-145.06;24.23;60892.56;4854712;28;20025;-88
2021/12/31 10:38:40;;;;;;;1.95;0.30;;;;;;;14.71;24.23;60892.56;4853525;28;20533;-89
2021/12/31 10:41:21;;;;;;;0.50;0.30;;;;;;;-145.06;24.23;60892.56;4864620;28;20037;-89
2021/12/31 10:44:02;;;;;;;0.40;0.40;;;;;;;-145.06;24.23;60892.56;4854477;28;20056;-87
2021/12/31 10:46:45;;;;;;;0.40;0.40;;;;;;;-145.06;24.23;60892.56;4869657;28;20064;-89
2021/12/31 10:49:24;;;;;;;0.35;0.35;;;;;;;-145.06;24.23;60892.56;4855571;28;20025;-89
2021/12/31 10:52:05;;;;;;;0.40;0.40;;;;;;;-145.06;24.23;60892.56;4852470;28;20038;-89
2021/12/31 10:55:01;;;;;;;0.30;0.30;;;;;;;-145.06;24.23;60892.56;4863716;28;20032;-88
2021/12/31 10:57:41;;;;;;;0.30;0.30;;;;;;;-145.06;24.23;60892.56;4849485;28;20033;-88
2021/12/31 11:00:22;;;;;;;0.65;0.40;;;;;;;-145.06;24.23;60892.56;4848986;28;20033;-89
2021/12/31 11:03:02;;;;;;;0.75;0.50;;;;;;;-145.06;24.23;60892.56;4868740;28;20033;-89
2021/12/31 11:05:41;;;;;;;1.05;0.43;;;;;;;-145.06;24.23;60892.56;4862092;28;20041;-88
2021/12/31 11:08:20;;;;;;;0.40;0.38;;;;;;;-145.06;24.23;60892.56;4853028;28;20068;-89
2021/12/31 11:11:02;;;;;;;0.50;0.50;;;;;;;-145.06;24.23;60892.56;4867029;28;20056;-88
2021/12/31 11:13:44;;;;;;;0.57;0.40;;;;;;;-145.06;24.23;60892.56;4856033;28;20028;-89
2021/12/31 11:16:25;;;;;;;0.47;0.30;;;;;;;-145.06;24.23;60892.56;4868319;28;20363;-89
2021/12/31 11:19:09;;;;;;;0.55;0.40;;;;;;;-145.06;24.23;60892.56;4859263;28;20479;-88
2021/12/31 11:21:50;;;;;;;0.32;0.32;;;;;;;-145.06;24.23;60892.56;4856388;28;20033;-88
2021/12/31 11:24:34;;;;;;;0.38;0.32;;;;;;;-145.06;24.23;60892.56;4867460;28;20434;-88
2021/12/31 11:27:25;;;;;;;0.30;0.30;;;;;;;-145.06;24.23;60892.56;4851103;28;20037;-89
2021/12/31 11:30:05;;;;;;;0.88;0.35;;;;;;;-145.06;24.23;60892.56;4852720;28;20332;-89
2021/12/31 11:33:07;;;;;;;0.60;0.40;;;;;;;-145.06;24.23;60892.56;4851629;28;20029;-88
2021/12/31 11:36:00;;;;;;;0.45;0.45;;;;;;;-145.06;24.23;60892.56;4851328;28;20037;-89
2021/12/31 11:38:42;;;;;;;0.47;0.43;;;;;;;-145.06;24.23;60892.56;4851253;28;20041;-89
2021/12/31 11:41:25;;;;;;;0.43;0.40;;;;;;;-145.06;24.23;60892.56;4850219;28;20037;-89
2021/12/31 11:44:09;;;;;;;0.40;0.30;;;;;;;15.27;24.23;60892.56;4847054;28;20498;-89
2021/12/31 11:46:48;;;;;;;0.40;0.40;;;;;;;-145.06;24.23;60892.56;4845141;28;20140;-88
2021/12/31 11:49:28;;;;;;;0.30;0.30;;;;;;;-145.06;24.23;60892.56;4847802;28;20033;-89
2021/12/31 11:52:09;;;;;;;0.38;0.30;;;;;;;15.53;24.23;60892.56;4842302;28;20034;-88
2021/12/31 11:55:18;;;;;;;0.40;0.30;;;;;;;-145.06;24.23;60892.56;4844418;28;20467;-89
2021/12/31 11:57:57;;;;;;;0.30;0.30;;;;;;;-145.06;24.23;60892.56;4856771;28;20037;-88
2021/12/31 12:00:36;;;;;;;0.52;0.40;;;;;;;-145.06;24.23;60892.56;4847677;28;20037;-88
2021/12/31 12:03:30;;;;;;;0.32;0.32;;;;;;;-145.06;24.23;60892.56;4846913;28;20033;-89
2021/12/31 12:06:48;;;;;;;0.45;0.40;;;;;;;-145.06;24.23;60892.56;4864327;28;20037;-88
2021/12/31 12:09:36;;;;;;;0.75;0.32;;;;;;;-145.06;24.23;60892.56;4860345;28;20466;-88
2021/12/31 12:12:27;;;;;;;0.40;0.40;;;;;;;-145.06;24.23;60892.56;4846270;28;20081;-89
2021/12/31 12:15:15;;;;;;;0.40;0.40;;;;;;;-145.06;24.23;60892.56;4856708;28;20041;-89
2021/12/31 12:17:56;;;;;;;0.40;0.40;;;;;;;15.88;24.23;60892.56;4844601;28;20037;-89
2021/12/31 12:20:40;;;;;;;1.52;0.65;;;;;;;-145.06;24.23;60892.56;4847982;28;20033;-88
2021/12/31 12:23:23;;;;;;;0.60;0.40;;;;;;;-145.06;24.23;60892.56;4866359;28;20038;-89